sensor_id;sensor_type;location;lat;lon;timestamp;pressure;altitude;pressure_sealevel;temperature;humidity
26978;BME280;56314;48.088;11.642;2022-09-09T00:04:21;95246.72;;;14.37;87.04
26978;BME280;56314;48.088;11.642;2022-09-09T00:06:59;95240.75;;;14.35;88.35
26978;BME280;56314;48.088;11.642;2022-09-09T00:09:30;95239.06;;;14.34;87.73
26978;BME280;56314;48.088;11.642;2022-09-09T00:12:12;95239.22;;;14.32;87.80
26978;BME280;56314;48.088;11.642;2022-09-09T00:17:52;95250.13;;;14.19;88.67
26978;BME280;56314;48.088;11.642;2022-09-09T00:20:44;95244.59;;;14.12;88.88
26978;BME280;56314;48.088;11.642;2022-09-09T00:23:24;95243.31;;;14.16;89.41
26978;BME280;56314;48.088;11.642;2022-09-09T00:28:23;95239.13;;;14.24;90.17
26978;BME280;56314;48.088;11.642;2022-09-09T00:30:49;95242.16;;;14.29;89.29
26978;BME280;56314;48.088;11.642;2022-09-09T00:33:19;95236.88;;;14.29;89.87
26978;BME280;56314;48.088;11.642;2022-09-09T00:35:49;95238.09;;;14.35;87.86
26978;BME280;56314;48.088;11.642;2022-09-09T00:38:43;95247.56;;;14.37;89.45
26978;BME280;56314;48.088;11.642;2022-09-09T00:41:26;95248.09;;;14.41;88.51
26978;BME280;56314;48.088;11.642;2022-09-09T00:50:00;95251.72;;;14.40;86.43
26978;BME280;56314;48.088;11.642;2022-09-09T00:57:51;95250.50;;;14.34;86.79
26978;BME280;56314;48.088;11.642;2022-09-09T01:00:29;95253.13;;;14.34;87.27
26978;BME280;56314;48.088;11.642;2022-09-09T01:11:12;95260.91;;;14.26;87.67
26978;BME280;56314;48.088;11.642;2022-09-09T01:13:41;95253.13;;;14.34;88.71
26978;BME280;56314;48.088;11.642;2022-09-09T01:16:08;95252.59;;;14.30;87.51
26978;BME280;56314;48.088;11.642;2022-09-09T01:18:54;95247.59;;;14.27;87.37
26978;BME280;56314;48.088;11.642;2022-09-09T01:21:46;95246.09;;;14.25;87.72
26978;BME280;56314;48.088;11.642;2022-09-09T01:24:27;95244.78;;;14.29;87.78
26978;BME280;56314;48.088;11.642;2022-09-09T01:26:59;95243.66;;;14.31;88.03
26978;BME280;56314;48.088;11.642;2022-09-09T01:29:26;95246.47;;;14.30;87.24
26978;BME280;56314;48.088;11.642;2022-09-09T01:31:57;95249.78;;;14.32;87.25
26978;BME280;56314;48.088;11.642;2022-09-09T01:34:27;95248.94;;;14.31;87.96
26978;BME280;56314;48.088;11.642;2022-09-09T01:37:05;95243.25;;;14.36;89.20
26978;BME280;56314;48.088;11.642;2022-09-09T01:39:33;95249.19;;;14.38;89.32
26978;BME280;56314;48.088;11.642;2022-09-09T01:41:59;95246.31;;;14.31;88.76
26978;BME280;56314;48.088;11.642;2022-09-09T01:44:25;95247.34;;;14.21;88.78
26978;BME280;56314;48.088;11.642;2022-09-09T01:46:52;95250.16;;;14.09;90.00
26978;BME280;56314;48.088;11.642;2022-09-09T01:49:18;95254.19;;;14.04;90.21
26978;BME280;56314;48.088;11.642;2022-09-09T01:51:46;95249.63;;;14.06;90.57
26978;BME280;56314;48.088;11.642;2022-09-09T01:54:13;95244.47;;;14.04;90.51
26978;BME280;56314;48.088;11.642;2022-09-09T02:01:54;95245.25;;;14.14;91.10
26978;BME280;56314;48.088;11.642;2022-09-09T02:04:27;95241.53;;;14.17;90.00
26978;BME280;56314;48.088;11.642;2022-09-09T02:06:57;95251.66;;;14.22;90.17
26978;BME280;56314;48.088;11.642;2022-09-09T02:09:24;95242.59;;;14.24;89.12
26978;BME280;56314;48.088;11.642;2022-09-09T02:11:56;95239.25;;;14.22;89.68
26978;BME280;56314;48.088;11.642;2022-09-09T02:14:28;95236.78;;;14.21;90.18
26978;BME280;56314;48.088;11.642;2022-09-09T02:17:03;95240.94;;;14.13;89.94
26978;BME280;56314;48.088;11.642;2022-09-09T02:19:41;95231.34;;;14.22;89.99
26978;BME280;56314;48.088;11.642;2022-09-09T02:22:11;95235.50;;;14.25;89.72
26978;BME280;56314;48.088;11.642;2022-09-09T02:24:38;95242.75;;;14.23;89.30
26978;BME280;56314;48.088;11.642;2022-09-09T02:27:07;95233.00;;;14.23;89.86
26978;BME280;56314;48.088;11.642;2022-09-09T02:29:36;95237.59;;;14.21;90.31
26978;BME280;56314;48.088;11.642;2022-09-09T02:32:06;95247.06;;;14.24;91.09
26978;BME280;56314;48.088;11.642;2022-09-09T02:34:36;95243.00;;;14.29;91.36
26978;BME280;56314;48.088;11.642;2022-09-09T02:37:03;95238.97;;;14.25;91.43
26978;BME280;56314;48.088;11.642;2022-09-09T02:39:29;95230.34;;;14.23;91.36
26978;BME280;56314;48.088;11.642;2022-09-09T02:41:54;95237.31;;;14.24;90.86
26978;BME280;56314;48.088;11.642;2022-09-09T02:44:19;95233.69;;;14.25;90.90
26978;BME280;56314;48.088;11.642;2022-09-09T02:52:55;95218.91;;;14.05;91.88
26978;BME280;56314;48.088;11.642;2022-09-09T02:58:04;95227.38;;;14.08;91.82
26978;BME280;56314;48.088;11.642;2022-09-09T03:00:31;95233.91;;;14.04;92.60
26978;BME280;56314;48.088;11.642;2022-09-09T03:02:58;95237.06;;;14.08;92.47
26978;BME280;56314;48.088;11.642;2022-09-09T03:05:23;95224.13;;;14.14;92.40
26978;BME280;56314;48.088;11.642;2022-09-09T03:07:50;95221.50;;;14.14;92.15
26978;BME280;56314;48.088;11.642;2022-09-09T03:10:16;95224.69;;;14.18;92.66
26978;BME280;56314;48.088;11.642;2022-09-09T03:12:42;95225.06;;;14.23;91.72
26978;BME280;56314;48.088;11.642;2022-09-09T03:15:08;95217.31;;;14.22;92.06
26978;BME280;56314;48.088;11.642;2022-09-09T03:17:35;95214.78;;;14.20;92.10
26978;BME280;56314;48.088;11.642;2022-09-09T03:20:02;95209.94;;;14.25;91.91
26978;BME280;56314;48.088;11.642;2022-09-09T03:22:27;95217.25;;;14.31;91.34
26978;BME280;56314;48.088;11.642;2022-09-09T03:24:52;95209.63;;;14.28;91.41
26978;BME280;56314;48.088;11.642;2022-09-09T03:27:18;95210.63;;;14.27;91.43
26978;BME280;56314;48.088;11.642;2022-09-09T03:29:44;95217.16;;;14.23;91.62
26978;BME280;56314;48.088;11.642;2022-09-09T03:32:10;95219.09;;;14.21;91.74
26978;BME280;56314;48.088;11.642;2022-09-09T03:34:35;95214.41;;;14.15;91.99
26978;BME280;56314;48.088;11.642;2022-09-09T03:37:05;95217.16;;;14.23;93.19
26978;BME280;56314;48.088;11.642;2022-09-09T03:39:31;95222.72;;;14.20;92.33
26978;BME280;56314;48.088;11.642;2022-09-09T03:41:56;95213.16;;;14.19;92.61
26978;BME280;56314;48.088;11.642;2022-09-09T03:44:22;95213.28;;;14.18;92.47
26978;BME280;56314;48.088;11.642;2022-09-09T03:46:47;95210.41;;;14.11;92.73
26978;BME280;56314;48.088;11.642;2022-09-09T03:49:13;95206.09;;;14.10;93.52
26978;BME280;56314;48.088;11.642;2022-09-09T03:51:38;95213.31;;;14.08;93.23
26978;BME280;56314;48.088;11.642;2022-09-09T03:54:04;95212.66;;;14.06;93.11
26978;BME280;56314;48.088;11.642;2022-09-09T03:56:34;95210.56;;;13.99;93.27
26978;BME280;56314;48.088;11.642;2022-09-09T03:59:00;95208.91;;;13.98;93.35
26978;BME280;56314;48.088;11.642;2022-09-09T04:01:25;95201.84;;;13.99;93.80
26978;BME280;56314;48.088;11.642;2022-09-09T04:03:51;95211.13;;;14.03;93.93
26978;BME280;56314;48.088;11.642;2022-09-09T04:06:18;95208.34;;;14.05;93.77
26978;BME280;56314;48.088;11.642;2022-09-09T04:08:45;95208.63;;;14.01;93.78
26978;BME280;56314;48.088;11.642;2022-09-09T04:11:13;95210.69;;;14.08;93.27
26978;BME280;56314;48.088;11.642;2022-09-09T04:13:39;95207.38;;;14.06;92.96
26978;BME280;56314;48.088;11.642;2022-09-09T04:16:05;95195.97;;;14.05;92.90
26978;BME280;56314;48.088;11.642;2022-09-09T04:18:31;95199.44;;;14.06;93.42
26978;BME280;56314;48.088;11.642;2022-09-09T04:20:57;95196.94;;;14.04;93.47
26978;BME280;56314;48.088;11.642;2022-09-09T04:23:23;95194.34;;;13.94;93.04
26978;BME280;56314;48.088;11.642;2022-09-09T04:25:54;95191.31;;;13.89;93.80
26978;BME280;56314;48.088;11.642;2022-09-09T04:28:21;95187.53;;;13.92;93.78
26978;BME280;56314;48.088;11.642;2022-09-09T04:30:47;95178.94;;;13.90;93.92
26978;BME280;56314;48.088;11.642;2022-09-09T04:33:13;95181.69;;;13.98;93.60
26978;BME280;56314;48.088;11.642;2022-09-09T04:35:39;95187.25;;;13.95;93.87
26978;BME280;56314;48.088;11.642;2022-09-09T04:38:08;95186.44;;;13.94;93.43
26978;BME280;56314;48.088;11.642;2022-09-09T04:40:34;95184.50;;;13.87;93.76
26978;BME280;56314;48.088;11.642;2022-09-09T04:43:01;95177.28;;;13.89;93.70
26978;BME280;56314;48.088;11.642;2022-09-09T04:45:28;95179.22;;;13.87;93.97
26978;BME280;56314;48.088;11.642;2022-09-09T04:47:53;95190.06;;;13.83;94.01
26978;BME280;56314;48.088;11.642;2022-09-09T04:50:19;95194.66;;;13.81;93.99
26978;BME280;56314;48.088;11.642;2022-09-09T04:52:44;95185.22;;;13.79;94.64
26978;BME280;56314;48.088;11.642;2022-09-09T04:55:10;95183.13;;;13.82;94.79
26978;BME280;56314;48.088;11.642;2022-09-09T04:57:35;95177.03;;;13.82;94.56
26978;BME280;56314;48.088;11.642;2022-09-09T05:00:00;95178.25;;;13.88;94.55
26978;BME280;56314;48.088;11.642;2022-09-09T05:02:27;95177.28;;;13.89;94.06
26978;BME280;56314;48.088;11.642;2022-09-09T05:04:52;95179.63;;;13.92;94.25
26978;BME280;56314;48.088;11.642;2022-09-09T05:07:17;95194.19;;;13.96;94.08
26978;BME280;56314;48.088;11.642;2022-09-09T05:09:44;95195.31;;;13.93;94.26
26978;BME280;56314;48.088;11.642;2022-09-09T05:12:10;95189.06;;;13.94;94.62
26978;BME280;56314;48.088;11.642;2022-09-09T05:14:36;95192.38;;;13.96;94.51
26978;BME280;56314;48.088;11.642;2022-09-09T05:17:03;95186.44;;;13.94;94.40
26978;BME280;56314;48.088;11.642;2022-09-09T05:19:28;95196.00;;;13.95;94.45
26978;BME280;56314;48.088;11.642;2022-09-09T05:21:54;95202.81;;;13.98;94.55
26978;BME280;56314;48.088;11.642;2022-09-09T05:24:19;95207.38;;;14.06;93.82
26978;BME280;56314;48.088;11.642;2022-09-09T05:26:44;95208.28;;;14.14;93.16
26978;BME280;56314;48.088;11.642;2022-09-09T05:29:10;95199.09;;;14.19;92.48
26978;BME280;56314;48.088;11.642;2022-09-09T05:31:35;95206.75;;;14.22;92.16
26978;BME280;56314;48.088;11.642;2022-09-09T05:34:00;95202.97;;;14.24;92.79
26978;BME280;56314;48.088;11.642;2022-09-09T05:36:26;95204.81;;;14.24;92.00
26978;BME280;56314;48.088;11.642;2022-09-09T05:38:51;95203.81;;;14.25;92.34
26978;BME280;56314;48.088;11.642;2022-09-09T05:41:19;95198.81;;;14.22;91.92
26978;BME280;56314;48.088;11.642;2022-09-09T05:43:45;95207.31;;;14.15;92.37
26978;BME280;56314;48.088;11.642;2022-09-09T05:46:17;95206.75;;;14.22;92.13
26978;BME280;56314;48.088;11.642;2022-09-09T05:48:45;95201.59;;;14.20;92.27
26978;BME280;56314;48.088;11.642;2022-09-09T05:51:17;95200.63;;;14.21;91.75
26978;BME280;56314;48.088;11.642;2022-09-09T05:53:44;95204.56;;;14.17;92.21
26978;BME280;56314;48.088;11.642;2022-09-09T05:56:15;95204.69;;;14.15;92.78
26978;BME280;56314;48.088;11.642;2022-09-09T05:58:41;95211.63;;;14.16;92.33
26978;BME280;56314;48.088;11.642;2022-09-09T06:01:15;95211.19;;;14.21;91.95
26978;BME280;56314;48.088;11.642;2022-09-09T06:03:42;95215.50;;;14.22;92.08
26978;BME280;56314;48.088;11.642;2022-09-09T06:06:11;95217.84;;;14.25;92.39
26978;BME280;56314;48.088;11.642;2022-09-09T06:08:38;95210.03;;;14.34;91.68
26978;BME280;56314;48.088;11.642;2022-09-09T06:11:06;95217.75;;;14.45;90.66
26978;BME280;56314;48.088;11.642;2022-09-09T06:13:32;95217.38;;;14.40;90.91
26978;BME280;56314;48.088;11.642;2022-09-09T06:15:58;95217.38;;;14.40;91.15
26978;BME280;56314;48.088;11.642;2022-09-09T06:18:25;95216.09;;;14.44;90.95
26978;BME280;56314;48.088;11.642;2022-09-09T06:21:14;95215.00;;;14.37;91.23
26978;BME280;56314;48.088;11.642;2022-09-09T06:23:40;95218.19;;;14.40;91.36
26978;BME280;56314;48.088;11.642;2022-09-09T06:26:11;95218.88;;;14.42;91.10
26978;BME280;56314;48.088;11.642;2022-09-09T06:28:37;95210.50;;;14.47;91.31
26978;BME280;56314;48.088;11.642;2022-09-09T06:31:05;95214.00;;;14.47;89.43
26978;BME280;56314;48.088;11.642;2022-09-09T06:33:35;95217.94;;;14.61;87.39
26978;BME280;56314;48.088;11.642;2022-09-09T06:36:02;95215.03;;;14.65;87.10
26978;BME280;56314;48.088;11.642;2022-09-09T06:38:29;95214.16;;;14.64;87.50
26978;BME280;56314;48.088;11.642;2022-09-09T06:40:55;95217.94;;;14.71;86.96
26978;BME280;56314;48.088;11.642;2022-09-09T06:43:22;95219.59;;;14.72;87.11
26978;BME280;56314;48.088;11.642;2022-09-09T06:46:04;95219.00;;;14.78;87.49
26978;BME280;56314;48.088;11.642;2022-09-09T06:48:29;95223.69;;;14.85;88.68
26978;BME280;56314;48.088;11.642;2022-09-09T06:51:06;95221.06;;;14.85;88.91
26978;BME280;56314;48.088;11.642;2022-09-09T06:53:33;95228.28;;;14.83;90.77
26978;BME280;56314;48.088;11.642;2022-09-09T06:56:21;95222.28;;;14.90;91.54
26978;BME280;56314;48.088;11.642;2022-09-09T06:58:49;95225.19;;;14.87;90.91
26978;BME280;56314;48.088;11.642;2022-09-09T07:01:16;95234.84;;;14.78;91.77
26978;BME280;56314;48.088;11.642;2022-09-09T07:03:46;95231.75;;;14.83;91.97
26978;BME280;56314;48.088;11.642;2022-09-09T07:06:18;95233.88;;;14.80;91.65
26978;BME280;56314;48.088;11.642;2022-09-09T07:08:51;95236.22;;;14.83;91.77
26978;BME280;56314;48.088;11.642;2022-09-09T07:11:19;95234.41;;;14.83;91.99
26978;BME280;56314;48.088;11.642;2022-09-09T07:13:44;95232.59;;;14.84;91.54
26978;BME280;56314;48.088;11.642;2022-09-09T07:16:12;95236.47;;;14.89;92.25
26978;BME280;56314;48.088;11.642;2022-09-09T07:18:39;95236.84;;;14.95;92.27
26978;BME280;56314;48.088;11.642;2022-09-09T07:21:05;95238.72;;;15.02;92.63
26978;BME280;56314;48.088;11.642;2022-09-09T07:23:31;95240.34;;;15.13;91.29
26978;BME280;56314;48.088;11.642;2022-09-09T07:25:58;95235.72;;;15.15;91.03
26978;BME280;56314;48.088;11.642;2022-09-09T07:28:24;95250.31;;;15.19;90.93
26978;BME280;56314;48.088;11.642;2022-09-09T07:33:19;95262.31;;;15.32;93.37
26978;BME280;56314;48.088;11.642;2022-09-09T07:35:45;95274.88;;;15.30;92.98
26978;BME280;56314;48.088;11.642;2022-09-09T07:38:11;95273.06;;;15.30;94.01
26978;BME280;56314;48.088;11.642;2022-09-09T07:40:36;95272.78;;;15.33;95.17
26978;BME280;56314;48.088;11.642;2022-09-09T07:43:02;95281.81;;;15.31;93.86
26978;BME280;56314;48.088;11.642;2022-09-09T07:45:27;95288.66;;;15.33;95.42
26978;BME280;56314;48.088;11.642;2022-09-09T07:47:57;95286.66;;;15.35;94.00
26978;BME280;56314;48.088;11.642;2022-09-09T07:50:23;95294.75;;;15.34;92.24
26978;BME280;56314;48.088;11.642;2022-09-09T07:52:52;95298.78;;;15.38;92.02
26978;BME280;56314;48.088;11.642;2022-09-09T07:55:20;95302.06;;;15.40;91.48
26978;BME280;56314;48.088;11.642;2022-09-09T07:57:46;95303.44;;;15.44;90.56
26978;BME280;56314;48.088;11.642;2022-09-09T08:00:12;95299.81;;;15.45;89.57
26978;BME280;56314;48.088;11.642;2022-09-09T08:02:39;95296.03;;;15.48;88.10
26978;BME280;56314;48.088;11.642;2022-09-09T08:05:05;95289.06;;;15.47;87.19
26978;BME280;56314;48.088;11.642;2022-09-09T08:07:31;95295.28;;;15.55;86.30
26978;BME280;56314;48.088;11.642;2022-09-09T08:09:56;95302.47;;;15.63;85.85
26978;BME280;56314;48.088;11.642;2022-09-09T08:12:22;95302.28;;;15.65;85.28
26978;BME280;56314;48.088;11.642;2022-09-09T08:14:48;95300.44;;;15.75;85.31
26978;BME280;56314;48.088;11.642;2022-09-09T08:17:14;95298.66;;;15.84;84.86
26978;BME280;56314;48.088;11.642;2022-09-09T08:19:39;95307.91;;;15.98;84.31
26978;BME280;56314;48.088;11.642;2022-09-09T08:22:05;95305.31;;;16.06;83.74
26978;BME280;56314;48.088;11.642;2022-09-09T08:24:31;95309.97;;;16.12;82.79
26978;BME280;56314;48.088;11.642;2022-09-09T08:26:56;95317.56;;;16.07;82.40
26978;BME280;56314;48.088;11.642;2022-09-09T08:29:22;95317.66;;;15.97;83.58
26978;BME280;56314;48.088;11.642;2022-09-09T08:31:53;95322.28;;;15.95;83.83
26978;BME280;56314;48.088;11.642;2022-09-09T08:34:19;95326.66;;;16.05;84.88
26978;BME280;56314;48.088;11.642;2022-09-09T08:36:46;95317.56;;;16.07;83.32
26978;BME280;56314;48.088;11.642;2022-09-09T08:39:14;95327.66;;;16.04;82.96
26978;BME280;56314;48.088;11.642;2022-09-09T08:50:13;95320.88;;;16.27;85.58
26978;BME280;56314;48.088;11.642;2022-09-09T08:53:01;95316.91;;;16.31;86.69
26978;BME280;56314;48.088;11.642;2022-09-09T08:55:35;95321.72;;;16.36;86.01
26978;BME280;56314;48.088;11.642;2022-09-09T08:58:32;95312.66;;;16.39;84.35
26978;BME280;56314;48.088;11.642;2022-09-09T09:01:35;95317.09;;;16.38;86.43
26978;BME280;56314;48.088;11.642;2022-09-09T09:11:59;95327.28;;;16.25;85.78
26978;BME280;56314;48.088;11.642;2022-09-09T09:14:28;95327.81;;;16.28;85.62
26978;BME280;56314;48.088;11.642;2022-09-09T09:17:02;95323.13;;;16.22;85.62
26978;BME280;56314;48.088;11.642;2022-09-09T09:19:29;95315.88;;;16.24;85.86
26978;BME280;56314;48.088;11.642;2022-09-09T09:25:17;95324.19;;;16.29;85.15
26978;BME280;56314;48.088;11.642;2022-09-09T09:27:53;95324.13;;;16.21;85.10
26978;BME280;56314;48.088;11.642;2022-09-09T09:30:23;95321.47;;;16.21;85.38
26978;BME280;56314;48.088;11.642;2022-09-09T09:33:23;95320.88;;;16.27;85.52
26978;BME280;56314;48.088;11.642;2022-09-09T09:35:41;95321.59;;;16.38;83.56
26978;BME280;56314;48.088;11.642;2022-09-09T09:38:26;95328.84;;;16.36;82.74
26978;BME280;56314;48.088;11.642;2022-09-09T09:40:55;95331.03;;;16.40;82.45
26978;BME280;56314;48.088;11.642;2022-09-09T09:43:34;95325.44;;;16.43;82.52
26978;BME280;56314;48.088;11.642;2022-09-09T09:46:00;95329.31;;;16.57;82.82
26978;BME280;56314;48.088;11.642;2022-09-09T09:48:28;95331.47;;;16.62;81.38
26978;BME280;56314;48.088;11.642;2022-09-09T09:50:58;95329.81;;;16.61;80.10
26978;BME280;56314;48.088;11.642;2022-09-09T09:53:30;95329.75;;;16.44;80.66
26978;BME280;56314;48.088;11.642;2022-09-09T09:56:02;95329.75;;;16.44;80.54
26978;BME280;56314;48.088;11.642;2022-09-09T09:58:34;95326.63;;;16.49;80.44
26978;BME280;56314;48.088;11.642;2022-09-09T10:01:04;95337.91;;;16.51;78.83
26978;BME280;56314;48.088;11.642;2022-09-09T10:03:31;95334.19;;;16.44;79.17
26978;BME280;56314;48.088;11.642;2022-09-09T10:05:57;95336.72;;;16.45;78.14
26978;BME280;56314;48.088;11.642;2022-09-09T10:08:27;95329.63;;;16.54;78.68
26978;BME280;56314;48.088;11.642;2022-09-09T10:11:16;95325.50;;;16.60;78.53
26978;BME280;56314;48.088;11.642;2022-09-09T10:13:58;95325.41;;;16.70;78.22
26978;BME280;56314;48.088;11.642;2022-09-09T10:16:41;95332.41;;;16.79;77.73
26978;BME280;56314;48.088;11.642;2022-09-09T10:19:13;95330.72;;;16.78;78.94
26978;BME280;56314;48.088;11.642;2022-09-09T10:21:47;95330.34;;;16.65;80.25
26978;BME280;56314;48.088;11.642;2022-09-09T10:26:59;95321.00;;;16.52;81.61
26978;BME280;56314;48.088;11.642;2022-09-09T10:32:36;95321.78;;;16.44;81.64
26978;BME280;56314;48.088;11.642;2022-09-09T10:38:24;95321.63;;;16.46;82.44
26978;BME280;56314;48.088;11.642;2022-09-09T10:43:37;95334.38;;;16.42;83.31
26978;BME280;56314;48.088;11.642;2022-09-09T10:48:37;95330.16;;;16.58;81.34
26978;BME280;56314;48.088;11.642;2022-09-09T10:51:21;95325.25;;;16.71;81.76
26978;BME280;56314;48.088;11.642;2022-09-09T10:54:21;95327.81;;;16.89;79.85
26978;BME280;56314;48.088;11.642;2022-09-09T10:56:59;95330.94;;;17.19;80.00
26978;BME280;56314;48.088;11.642;2022-09-09T10:59:33;95333.47;;;17.37;77.86
26978;BME280;56314;48.088;11.642;2022-09-09T11:02:19;95326.00;;;17.41;77.13
26978;BME280;56314;48.088;11.642;2022-09-09T11:04:55;95334.50;;;17.53;77.08
26978;BME280;56314;48.088;11.642;2022-09-09T11:07:34;95327.78;;;17.24;76.91
26978;BME280;56314;48.088;11.642;2022-09-09T11:10:11;95331.72;;;17.12;76.60
26978;BME280;56314;48.088;11.642;2022-09-09T11:12:43;95335.72;;;16.81;76.90
26978;BME280;56314;48.088;11.642;2022-09-09T11:15:20;95327.56;;;16.74;77.34
26978;BME280;56314;48.088;11.642;2022-09-09T11:18:01;95329.44;;;16.82;77.27
26978;BME280;56314;48.088;11.642;2022-09-09T11:20:32;95331.59;;;16.87;78.06
26978;BME280;56314;48.088;11.642;2022-09-09T11:23:17;95333.38;;;16.78;76.94
26978;BME280;56314;48.088;11.642;2022-09-09T11:25:48;95326.81;;;16.90;76.23
26978;BME280;56314;48.088;11.642;2022-09-09T11:44:40;95324.56;;;17.72;72.26
26978;BME280;56314;48.088;11.642;2022-09-09T11:47:20;95312.78;;;17.66;71.50
26978;BME280;56314;48.088;11.642;2022-09-09T11:49:49;95321.06;;;17.63;71.14
26978;BME280;56314;48.088;11.642;2022-09-09T11:52:42;95313.28;;;17.61;70.36
26978;BME280;56314;48.088;11.642;2022-09-09T11:55:30;95317.63;;;17.79;69.73
26978;BME280;56314;48.088;11.642;2022-09-09T12:00:38;95307.16;;;18.02;69.56
26978;BME280;56314;48.088;11.642;2022-09-09T12:03:05;95317.63;;;18.20;69.19
26978;BME280;56314;48.088;11.642;2022-09-09T12:05:42;95319.78;;;18.33;68.40
26978;BME280;56314;48.088;11.642;2022-09-09T12:08:15;95309.81;;;18.27;66.18
26978;BME280;56314;48.088;11.642;2022-09-09T12:10:54;95311.31;;;18.13;67.67
26978;BME280;56314;48.088;11.642;2022-09-09T12:13:22;95311.66;;;18.10;67.34
26978;BME280;56314;48.088;11.642;2022-09-09T12:15:53;95314.97;;;18.12;66.18
26978;BME280;56314;48.088;11.642;2022-09-09T12:18:25;95315.81;;;18.04;66.05
26978;BME280;56314;48.088;11.642;2022-09-09T12:24:06;95312.13;;;18.13;65.80
26978;BME280;56314;48.088;11.642;2022-09-09T12:26:47;95309.13;;;18.25;65.43
26978;BME280;56314;48.088;11.642;2022-09-09T12:31:51;95301.13;;;18.58;64.13
26978;BME280;56314;48.088;11.642;2022-09-09T12:37:34;95303.47;;;18.92;64.02
26978;BME280;56314;48.088;11.642;2022-09-09T12:40:06;95306.44;;;19.06;63.77
26978;BME280;56314;48.088;11.642;2022-09-09T12:42:32;95300.47;;;19.04;62.50
26978;BME280;56314;48.088;11.642;2022-09-09T12:45:02;95297.88;;;19.19;62.92
26978;BME280;56314;48.088;11.642;2022-09-09T12:47:51;95294.72;;;19.23;61.09
26978;BME280;56314;48.088;11.642;2022-09-09T12:50:25;95293.00;;;19.31;60.50
26978;BME280;56314;48.088;11.642;2022-09-09T12:52:56;95290.03;;;19.26;61.13
26978;BME280;56314;48.088;11.642;2022-09-09T12:55:35;95283.97;;;19.40;61.73
26978;BME280;56314;48.088;11.642;2022-09-09T12:58:03;95286.41;;;19.50;59.82
26978;BME280;56314;48.088;11.642;2022-09-09T13:00:30;95277.81;;;19.63;59.65
26978;BME280;56314;48.088;11.642;2022-09-09T13:02:58;95282.59;;;19.44;59.98
26978;BME280;56314;48.088;11.642;2022-09-09T13:05:38;95279.56;;;19.24;60.76
26978;BME280;56314;48.088;11.642;2022-09-09T13:08:09;95275.16;;;19.08;61.66
26978;BME280;56314;48.088;11.642;2022-09-09T13:10:43;95273.38;;;19.00;62.13
26978;BME280;56314;48.088;11.642;2022-09-09T13:13:17;95267.22;;;19.00;61.19
26978;BME280;56314;48.088;11.642;2022-09-09T13:15:50;95269.75;;;18.85;61.79
26978;BME280;56314;48.088;11.642;2022-09-09T13:18:40;95276.44;;;18.72;62.75
26978;BME280;56314;48.088;11.642;2022-09-09T13:21:05;95274.78;;;18.80;61.15
26978;BME280;56314;48.088;11.642;2022-09-09T13:23:32;95274.63;;;18.73;61.25
26978;BME280;56314;48.088;11.642;2022-09-09T13:26:22;95265.81;;;18.72;61.08
26978;BME280;56314;48.088;11.642;2022-09-09T13:28:48;95262.81;;;18.75;61.05
26978;BME280;56314;48.088;11.642;2022-09-09T13:31:40;95270.31;;;18.72;60.92
26978;BME280;56314;48.088;11.642;2022-09-09T13:34:13;95268.03;;;18.60;61.51
26978;BME280;56314;48.088;11.642;2022-09-09T13:36:40;95256.91;;;18.49;62.35
26978;BME280;56314;48.088;11.642;2022-09-09T13:39:17;95261.56;;;18.46;62.82
26978;BME280;56314;48.088;11.642;2022-09-09T13:41:45;95257.13;;;18.39;63.75
26978;BME280;56314;48.088;11.642;2022-09-09T13:44:20;95254.63;;;18.37;64.27
26978;BME280;56314;48.088;11.642;2022-09-09T13:46:48;95255.31;;;18.23;65.09
26978;BME280;56314;48.088;11.642;2022-09-09T13:49:28;95246.88;;;18.11;65.58
26978;BME280;56314;48.088;11.642;2022-09-09T13:52:09;95248.22;;;18.15;66.97
26978;BME280;56314;48.088;11.642;2022-09-09T13:54:35;95253.84;;;17.95;67.09
26978;BME280;56314;48.088;11.642;2022-09-09T13:57:00;95253.84;;;17.95;67.92
26978;BME280;56314;48.088;11.642;2022-09-09T13:59:27;95244.91;;;17.88;68.12
26978;BME280;56314;48.088;11.642;2022-09-09T14:01:52;95244.75;;;17.81;69.04
26978;BME280;56314;48.088;11.642;2022-09-09T14:04:19;95240.91;;;17.84;67.84
26978;BME280;56314;48.088;11.642;2022-09-09T14:06:46;95241.44;;;17.71;67.30
26978;BME280;56314;48.088;11.642;2022-09-09T14:09:14;95241.41;;;17.54;68.01
26978;BME280;56314;48.088;11.642;2022-09-09T14:11:40;95234.63;;;17.52;68.62
26978;BME280;56314;48.088;11.642;2022-09-09T14:14:05;95242.25;;;17.47;69.20
26978;BME280;56314;48.088;11.642;2022-09-09T14:16:31;95239.25;;;17.33;69.48
26978;BME280;56314;48.088;11.642;2022-09-09T14:18:56;95242.09;;;17.48;69.64
26978;BME280;56314;48.088;11.642;2022-09-09T14:21:22;95241.59;;;17.61;68.25
26978;BME280;56314;48.088;11.642;2022-09-09T14:23:48;95240.44;;;17.72;68.18
26978;BME280;56314;48.088;11.642;2022-09-09T14:26:13;95239.91;;;17.85;67.94
26978;BME280;56314;48.088;11.642;2022-09-09T14:28:39;95251.88;;;17.73;67.82
26978;BME280;56314;48.088;11.642;2022-09-09T14:31:05;95249.91;;;17.66;67.16
26978;BME280;56314;48.088;11.642;2022-09-09T14:33:31;95249.03;;;17.66;67.48
26978;BME280;56314;48.088;11.642;2022-09-09T14:36:01;95244.91;;;17.72;67.72
26978;BME280;56314;48.088;11.642;2022-09-09T14:38:31;95249.88;;;17.75;67.37
26978;BME280;56314;48.088;11.642;2022-09-09T14:40:56;95255.38;;;17.73;65.80
26978;BME280;56314;48.088;11.642;2022-09-09T14:43:23;95247.25;;;17.66;64.52
26978;BME280;56314;48.088;11.642;2022-09-09T14:45:49;95253.53;;;17.74;65.02
26978;BME280;56314;48.088;11.642;2022-09-09T14:48:16;95256.53;;;17.79;64.42
26978;BME280;56314;48.088;11.642;2022-09-09T14:50:42;95255.69;;;17.78;64.10
26978;BME280;56314;48.088;11.642;2022-09-09T14:53:08;95250.34;;;17.87;63.91